Wood, Iowa
Current Conditions -  °F | °C
As of 1:55 AM on Tuesday 21 Oct 2014 (Local Time) from KPDC Reporting Station
Clear Clear  
Wind Chill: 40°   Ceiling: Unl
Heat Index: 40°   Visibility: 10mi
Dew Point: 37°   Wind: 0mph
Humidity: 91%   Direction: NA
Pressure: 30.08"   Gusts: NA
Location:  42.6679°N, 91.3801°W
Report Text: KPDC 210655Z AUTO 00000KT 10SM CLR 04/03 A3008 RMK AO2 T00420028
Loading
Personal Weather Stations






























Interactive Weather Map New forecast layout! Learn more

10-Day Weather Forecast

Advertisements
Track Severe Weather on mobile